This is the latest recevied weather packets stored in our database for station/object AA1FF. If no packets are shown the sender has not sent any weather packets the latest 10 day(s).
| Time | Temp. | Humidity | Pressure | Rain* | Wind** | Luminosity | Snow |
|---|---|---|---|---|---|---|---|
| 1777755223 | 9.44° C | 96% | 1010 hPa | 0 mm | - | 109 W/m² | - |
| 1777754924 | 9.44° C | 96% | 1010 hPa | 0 mm | - | 85 W/m² | - |
| 1777754623 | 9.44° C | 95% | 1010 hPa | 0 mm | - | 45 W/m² | - |
| 1777754323 | 9.44° C | 95% | 1010 hPa | 0 mm | - | 50 W/m² | - |
| 1777754023 | 9.44° C | 94% | 1010 hPa | 0 mm | - | 27 W/m² | - |
| 1777753723 | 9.44° C | 94% | 1010 hPa | 0 mm | - | 28 W/m² | - |
| 1777753423 | 9.44° C | 93% | 1010 hPa | 0 mm | - | 27 W/m² | - |
| 1777753124 | 9.44° C | 92% | 1010 hPa | 1.02 mm | - | 27 W/m² | - |
| 1777752827 | 9.44° C | 92% | 1010 hPa | 0.51 mm | - | 36 W/m² | - |
| 1777752523 | 10° C | 91% | 1010 hPa | 0.25 mm | - | 27 W/m² | - |
| 1777752223 | 10° C | 90% | 1010 hPa | 0 mm | - | 43 W/m² | - |
| 1777751923 | 10.56° C | 87% | 1010 hPa | 3.3 mm | - | 37 W/m² | - |
| 1777751623 | 11.67° C | 82% | 1010 hPa | 9.14 mm | - | 28 W/m² | - |
| 1777751323 | 12.22° C | 74% | 1010 hPa | 0 mm | - | 40 W/m² | - |
| 1777751023 | 12.22° C | 74% | 1010 hPa | 0 mm | - | 93 W/m² | - |
| 1777750723 | 12.22° C | 73% | 1010 hPa | 0 mm | - | 175 W/m² | - |
| 1777750423 | 12.78° C | 73% | 1010 hPa | 0 mm | - | 188 W/m² | - |
| 1777750123 | 12.78° C | 72% | 1010 hPa | 0 mm | - | 222 W/m² | - |
| 1777749823 | 12.78° C | 73% | 1010 hPa | 0 mm | - | 831 W/m² | - |
| 1777749523 | 12.22° C | 75% | 1010 hPa | 0 mm | - | 423 W/m² | - |
| 1777749223 | 11.67° C | 74% | 1011 hPa | 0 mm | - | 408 W/m² | - |
| 1777748923 | 11.67° C | 76% | 1011 hPa | 0 mm | - | 328 W/m² | - |
| 1777748624 | 11.67° C | 77% | 1011 hPa | 0 mm | - | 271 W/m² | - |
| 1777748323 | 11.67° C | 77% | 1011 hPa | 0 mm | - | 266 W/m² | - |
| 1777748024 | 11.67° C | 75% | 1011 hPa | 0 mm | - | 318 W/m² | - |
* Rain latest hour (hover to see other rain measurements)
** Current wind speed in m/s (hover to see current wind gust speed)